sensor_id;sensor_type;location;lat;lon;timestamp;P1;durP1;ratioP1;P2;durP2;ratioP2
20065;SDS011;10193;48.884;9.182;2022-12-18T00:02:13;23.03;;;13.13;;
20065;SDS011;10193;48.884;9.182;2022-12-18T00:04:40;20.07;;;13.23;;
20065;SDS011;10193;48.884;9.182;2022-12-18T00:07:07;22.40;;;14.47;;
20065;SDS011;10193;48.884;9.182;2022-12-18T00:09:33;22.47;;;13.83;;
20065;SDS011;10193;48.884;9.182;2022-12-18T00:12:00;22.60;;;13.90;;
20065;SDS011;10193;48.884;9.182;2022-12-18T00:14:28;25.13;;;15.07;;
20065;SDS011;10193;48.884;9.182;2022-12-18T00:16:55;21.03;;;13.97;;
20065;SDS011;10193;48.884;9.182;2022-12-18T00:19:23;21.50;;;12.93;;
20065;SDS011;10193;48.884;9.182;2022-12-18T00:21:50;20.77;;;13.43;;
20065;SDS011;10193;48.884;9.182;2022-12-18T00:24:16;20.10;;;13.00;;
20065;SDS011;10193;48.884;9.182;2022-12-18T00:26:43;20.00;;;13.57;;
20065;SDS011;10193;48.884;9.182;2022-12-18T00:29:11;22.93;;;13.63;;
20065;SDS011;10193;48.884;9.182;2022-12-18T00:31:41;22.80;;;14.43;;
20065;SDS011;10193;48.884;9.182;2022-12-18T00:34:09;20.33;;;13.97;;
20065;SDS011;10193;48.884;9.182;2022-12-18T00:36:37;23.53;;;14.03;;
20065;SDS011;10193;48.884;9.182;2022-12-18T00:39:05;21.07;;;13.77;;
20065;SDS011;10193;48.884;9.182;2022-12-18T00:41:32;22.83;;;14.27;;
20065;SDS011;10193;48.884;9.182;2022-12-18T00:44:17;24.60;;;13.80;;
20065;SDS011;10193;48.884;9.182;2022-12-18T00:46:46;21.40;;;13.57;;
20065;SDS011;10193;48.884;9.182;2022-12-18T00:49:14;22.30;;;13.70;;
20065;SDS011;10193;48.884;9.182;2022-12-18T00:51:41;23.90;;;13.90;;
20065;SDS011;10193;48.884;9.182;2022-12-18T00:54:08;21.37;;;13.37;;
20065;SDS011;10193;48.884;9.182;2022-12-18T00:56:35;21.23;;;13.67;;
20065;SDS011;10193;48.884;9.182;2022-12-18T00:59:02;21.03;;;14.17;;
20065;SDS011;10193;48.884;9.182;2022-12-18T01:01:29;23.03;;;14.30;;
20065;SDS011;10193;48.884;9.182;2022-12-18T01:04:00;22.13;;;13.40;;
20065;SDS011;10193;48.884;9.182;2022-12-18T01:06:27;23.00;;;13.90;;
20065;SDS011;10193;48.884;9.182;2022-12-18T01:08:54;20.73;;;13.73;;
20065;SDS011;10193;48.884;9.182;2022-12-18T01:11:21;20.87;;;13.07;;
20065;SDS011;10193;48.884;9.182;2022-12-18T01:13:48;23.10;;;13.37;;
20065;SDS011;10193;48.884;9.182;2022-12-18T01:16:16;24.43;;;14.23;;
20065;SDS011;10193;48.884;9.182;2022-12-18T01:18:43;21.83;;;14.17;;
20065;SDS011;10193;48.884;9.182;2022-12-18T01:21:13;23.47;;;14.53;;
20065;SDS011;10193;48.884;9.182;2022-12-18T01:23:40;22.67;;;14.43;;
20065;SDS011;10193;48.884;9.182;2022-12-18T01:26:07;29.03;;;14.63;;
20065;SDS011;10193;48.884;9.182;2022-12-18T01:28:36;24.93;;;14.30;;
20065;SDS011;10193;48.884;9.182;2022-12-18T01:31:13;22.60;;;13.50;;
20065;SDS011;10193;48.884;9.182;2022-12-18T01:33:42;24.03;;;13.40;;
20065;SDS011;10193;48.884;9.182;2022-12-18T01:36:15;23.03;;;14.50;;
20065;SDS011;10193;48.884;9.182;2022-12-18T01:38:43;22.33;;;14.03;;
20065;SDS011;10193;48.884;9.182;2022-12-18T01:41:09;22.30;;;13.87;;
20065;SDS011;10193;48.884;9.182;2022-12-18T01:43:50;23.23;;;13.93;;
20065;SDS011;10193;48.884;9.182;2022-12-18T01:46:19;22.63;;;13.57;;
20065;SDS011;10193;48.884;9.182;2022-12-18T01:48:47;19.87;;;13.20;;
20065;SDS011;10193;48.884;9.182;2022-12-18T01:51:17;22.00;;;14.07;;
20065;SDS011;10193;48.884;9.182;2022-12-18T01:53:44;21.67;;;13.13;;
20065;SDS011;10193;48.884;9.182;2022-12-18T01:56:14;22.80;;;13.50;;
20065;SDS011;10193;48.884;9.182;2022-12-18T01:58:46;23.03;;;13.20;;
20065;SDS011;10193;48.884;9.182;2022-12-18T02:01:17;21.97;;;13.37;;
20065;SDS011;10193;48.884;9.182;2022-12-18T02:03:45;22.93;;;14.07;;
20065;SDS011;10193;48.884;9.182;2022-12-18T02:06:13;21.80;;;13.40;;
20065;SDS011;10193;48.884;9.182;2022-12-18T02:08:53;23.13;;;13.97;;
20065;SDS011;10193;48.884;9.182;2022-12-18T02:11:29;22.57;;;13.87;;
20065;SDS011;10193;48.884;9.182;2022-12-18T02:14:04;22.03;;;13.20;;
20065;SDS011;10193;48.884;9.182;2022-12-18T02:16:42;21.43;;;12.77;;
20065;SDS011;10193;48.884;9.182;2022-12-18T02:19:15;22.87;;;13.97;;
20065;SDS011;10193;48.884;9.182;2022-12-18T02:21:57;24.00;;;13.70;;
20065;SDS011;10193;48.884;9.182;2022-12-18T02:24:33;19.80;;;12.63;;
20065;SDS011;10193;48.884;9.182;2022-12-18T02:27:07;21.67;;;12.53;;
20065;SDS011;10193;48.884;9.182;2022-12-18T02:29:36;20.13;;;12.80;;
20065;SDS011;10193;48.884;9.182;2022-12-18T02:32:08;21.87;;;12.80;;
20065;SDS011;10193;48.884;9.182;2022-12-18T02:34:37;21.90;;;12.17;;
20065;SDS011;10193;48.884;9.182;2022-12-18T02:37:06;19.53;;;12.27;;
20065;SDS011;10193;48.884;9.182;2022-12-18T02:39:38;21.43;;;12.93;;
20065;SDS011;10193;48.884;9.182;2022-12-18T02:42:09;23.13;;;13.33;;
20065;SDS011;10193;48.884;9.182;2022-12-18T02:44:41;21.50;;;12.90;;
20065;SDS011;10193;48.884;9.182;2022-12-18T02:47:09;20.53;;;12.47;;
20065;SDS011;10193;48.884;9.182;2022-12-18T02:49:39;20.87;;;11.63;;
20065;SDS011;10193;48.884;9.182;2022-12-18T02:52:13;16.97;;;11.33;;
20065;SDS011;10193;48.884;9.182;2022-12-18T02:54:49;20.00;;;12.33;;
20065;SDS011;10193;48.884;9.182;2022-12-18T02:57:27;20.77;;;12.10;;
20065;SDS011;10193;48.884;9.182;2022-12-18T03:00:02;17.87;;;11.80;;
20065;SDS011;10193;48.884;9.182;2022-12-18T03:02:33;20.67;;;12.40;;
20065;SDS011;10193;48.884;9.182;2022-12-18T03:05:04;18.70;;;11.50;;
20065;SDS011;10193;48.884;9.182;2022-12-18T03:07:37;19.37;;;12.50;;
20065;SDS011;10193;48.884;9.182;2022-12-18T03:10:09;21.47;;;12.53;;
20065;SDS011;10193;48.884;9.182;2022-12-18T03:12:42;17.70;;;11.60;;
20065;SDS011;10193;48.884;9.182;2022-12-18T03:15:11;19.03;;;11.37;;
20065;SDS011;10193;48.884;9.182;2022-12-18T03:17:41;18.90;;;11.53;;
20065;SDS011;10193;48.884;9.182;2022-12-18T03:20:12;17.73;;;11.87;;
20065;SDS011;10193;48.884;9.182;2022-12-18T03:22:43;18.07;;;11.73;;
20065;SDS011;10193;48.884;9.182;2022-12-18T03:25:13;18.93;;;11.40;;
20065;SDS011;10193;48.884;9.182;2022-12-18T03:27:44;17.90;;;11.17;;
20065;SDS011;10193;48.884;9.182;2022-12-18T03:30:15;17.70;;;10.33;;
20065;SDS011;10193;48.884;9.182;2022-12-18T03:32:47;17.37;;;11.23;;
20065;SDS011;10193;48.884;9.182;2022-12-18T03:35:19;19.60;;;11.90;;
20065;SDS011;10193;48.884;9.182;2022-12-18T03:37:49;19.03;;;11.67;;
20065;SDS011;10193;48.884;9.182;2022-12-18T03:40:16;19.77;;;11.60;;
20065;SDS011;10193;48.884;9.182;2022-12-18T03:42:45;18.00;;;11.43;;
20065;SDS011;10193;48.884;9.182;2022-12-18T03:45:18;20.70;;;11.90;;
20065;SDS011;10193;48.884;9.182;2022-12-18T03:47:53;19.33;;;11.23;;
20065;SDS011;10193;48.884;9.182;2022-12-18T03:50:27;19.07;;;10.83;;
20065;SDS011;10193;48.884;9.182;2022-12-18T03:53:02;17.87;;;11.63;;
20065;SDS011;10193;48.884;9.182;2022-12-18T03:55:38;17.47;;;11.53;;
20065;SDS011;10193;48.884;9.182;2022-12-18T03:58:07;18.07;;;11.73;;
20065;SDS011;10193;48.884;9.182;2022-12-18T04:00:35;16.00;;;11.17;;
20065;SDS011;10193;48.884;9.182;2022-12-18T04:03:03;17.33;;;10.53;;
20065;SDS011;10193;48.884;9.182;2022-12-18T04:05:31;17.27;;;10.70;;
20065;SDS011;10193;48.884;9.182;2022-12-18T04:08:00;19.20;;;11.43;;
20065;SDS011;10193;48.884;9.182;2022-12-18T04:10:28;15.47;;;10.03;;
20065;SDS011;10193;48.884;9.182;2022-12-18T04:12:55;18.30;;;10.93;;
20065;SDS011;10193;48.884;9.182;2022-12-18T04:15:24;17.00;;;10.77;;
20065;SDS011;10193;48.884;9.182;2022-12-18T04:17:51;18.83;;;11.20;;
20065;SDS011;10193;48.884;9.182;2022-12-18T04:20:17;17.87;;;10.60;;
20065;SDS011;10193;48.884;9.182;2022-12-18T04:22:44;15.17;;;10.60;;
20065;SDS011;10193;48.884;9.182;2022-12-18T04:25:11;16.07;;;9.97;;
20065;SDS011;10193;48.884;9.182;2022-12-18T04:27:38;17.87;;;10.60;;
20065;SDS011;10193;48.884;9.182;2022-12-18T04:30:05;17.27;;;10.33;;
20065;SDS011;10193;48.884;9.182;2022-12-18T04:32:34;15.73;;;10.33;;
20065;SDS011;10193;48.884;9.182;2022-12-18T04:35:01;15.73;;;10.07;;
20065;SDS011;10193;48.884;9.182;2022-12-18T04:37:29;16.77;;;11.27;;
20065;SDS011;10193;48.884;9.182;2022-12-18T04:39:55;17.83;;;10.40;;
20065;SDS011;10193;48.884;9.182;2022-12-18T04:42:22;17.00;;;10.10;;
20065;SDS011;10193;48.884;9.182;2022-12-18T04:44:49;16.83;;;10.03;;
20065;SDS011;10193;48.884;9.182;2022-12-18T04:47:15;14.57;;;10.27;;
20065;SDS011;10193;48.884;9.182;2022-12-18T04:49:43;15.97;;;10.27;;
20065;SDS011;10193;48.884;9.182;2022-12-18T04:52:10;15.10;;;10.07;;
20065;SDS011;10193;48.884;9.182;2022-12-18T04:54:37;15.93;;;10.40;;
20065;SDS011;10193;48.884;9.182;2022-12-18T04:57:03;15.37;;;10.50;;
20065;SDS011;10193;48.884;9.182;2022-12-18T04:59:30;17.40;;;11.27;;
20065;SDS011;10193;48.884;9.182;2022-12-18T05:01:57;15.43;;;10.27;;
20065;SDS011;10193;48.884;9.182;2022-12-18T05:04:23;18.83;;;11.47;;
20065;SDS011;10193;48.884;9.182;2022-12-18T05:06:51;16.93;;;10.07;;
20065;SDS011;10193;48.884;9.182;2022-12-18T05:09:18;16.40;;;10.00;;
20065;SDS011;10193;48.884;9.182;2022-12-18T05:11:45;16.67;;;10.33;;
20065;SDS011;10193;48.884;9.182;2022-12-18T05:14:12;16.40;;;10.70;;
20065;SDS011;10193;48.884;9.182;2022-12-18T05:16:38;16.87;;;10.80;;
20065;SDS011;10193;48.884;9.182;2022-12-18T05:19:05;17.13;;;10.90;;
20065;SDS011;10193;48.884;9.182;2022-12-18T05:21:32;16.03;;;10.20;;
20065;SDS011;10193;48.884;9.182;2022-12-18T05:23:59;17.57;;;10.80;;
20065;SDS011;10193;48.884;9.182;2022-12-18T05:26:26;18.00;;;11.63;;
20065;SDS011;10193;48.884;9.182;2022-12-18T05:28:56;15.77;;;10.40;;
20065;SDS011;10193;48.884;9.182;2022-12-18T05:31:23;18.43;;;12.03;;
20065;SDS011;10193;48.884;9.182;2022-12-18T05:33:49;19.17;;;10.77;;
20065;SDS011;10193;48.884;9.182;2022-12-18T05:36:16;17.03;;;10.90;;
20065;SDS011;10193;48.884;9.182;2022-12-18T05:38:43;19.70;;;10.80;;
20065;SDS011;10193;48.884;9.182;2022-12-18T05:41:11;19.30;;;11.50;;
20065;SDS011;10193;48.884;9.182;2022-12-18T05:43:40;19.13;;;11.00;;
20065;SDS011;10193;48.884;9.182;2022-12-18T05:46:07;16.43;;;10.53;;
20065;SDS011;10193;48.884;9.182;2022-12-18T05:48:37;15.90;;;10.63;;
20065;SDS011;10193;48.884;9.182;2022-12-18T05:51:04;17.90;;;9.90;;
20065;SDS011;10193;48.884;9.182;2022-12-18T05:53:33;16.03;;;10.00;;
20065;SDS011;10193;48.884;9.182;2022-12-18T05:56:01;18.93;;;11.20;;
20065;SDS011;10193;48.884;9.182;2022-12-18T05:58:29;18.00;;;10.67;;
20065;SDS011;10193;48.884;9.182;2022-12-18T06:00:57;17.37;;;10.83;;
20065;SDS011;10193;48.884;9.182;2022-12-18T06:03:31;18.60;;;11.00;;
20065;SDS011;10193;48.884;9.182;2022-12-18T06:05:57;15.07;;;10.63;;
20065;SDS011;10193;48.884;9.182;2022-12-18T06:08:24;17.27;;;10.70;;
20065;SDS011;10193;48.884;9.182;2022-12-18T06:10:51;16.30;;;10.53;;
20065;SDS011;10193;48.884;9.182;2022-12-18T06:13:18;17.60;;;11.03;;
20065;SDS011;10193;48.884;9.182;2022-12-18T06:15:47;17.70;;;10.40;;
20065;SDS011;10193;48.884;9.182;2022-12-18T06:18:13;19.50;;;11.30;;
20065;SDS011;10193;48.884;9.182;2022-12-18T06:20:40;18.27;;;11.23;;
20065;SDS011;10193;48.884;9.182;2022-12-18T06:23:07;17.30;;;10.20;;
20065;SDS011;10193;48.884;9.182;2022-12-18T06:25:36;18.43;;;11.07;;
20065;SDS011;10193;48.884;9.182;2022-12-18T06:28:04;18.43;;;10.30;;
20065;SDS011;10193;48.884;9.182;2022-12-18T06:30:31;16.97;;;10.67;;
20065;SDS011;10193;48.884;9.182;2022-12-18T06:32:58;17.60;;;10.60;;
20065;SDS011;10193;48.884;9.182;2022-12-18T06:35:25;16.40;;;9.80;;
20065;SDS011;10193;48.884;9.182;2022-12-18T06:37:52;19.13;;;10.90;;
20065;SDS011;10193;48.884;9.182;2022-12-18T06:40:18;16.33;;;10.60;;
20065;SDS011;10193;48.884;9.182;2022-12-18T06:42:45;16.77;;;9.70;;
20065;SDS011;10193;48.884;9.182;2022-12-18T06:45:15;15.53;;;9.90;;
20065;SDS011;10193;48.884;9.182;2022-12-18T06:47:41;15.97;;;10.23;;
20065;SDS011;10193;48.884;9.182;2022-12-18T06:50:09;15.53;;;10.30;;
20065;SDS011;10193;48.884;9.182;2022-12-18T06:52:36;17.63;;;10.73;;
20065;SDS011;10193;48.884;9.182;2022-12-18T06:55:04;16.33;;;10.10;;
20065;SDS011;10193;48.884;9.182;2022-12-18T06:57:31;16.43;;;10.20;;
20065;SDS011;10193;48.884;9.182;2022-12-18T06:59:58;16.10;;;10.17;;
20065;SDS011;10193;48.884;9.182;2022-12-18T07:02:25;14.70;;;9.57;;
20065;SDS011;10193;48.884;9.182;2022-12-18T07:04:51;15.93;;;9.97;;
20065;SDS011;10193;48.884;9.182;2022-12-18T07:07:19;16.30;;;10.43;;
20065;SDS011;10193;48.884;9.182;2022-12-18T07:09:46;16.97;;;10.90;;
20065;SDS011;10193;48.884;9.182;2022-12-18T07:12:14;16.53;;;10.97;;
20065;SDS011;10193;48.884;9.182;2022-12-18T07:14:40;14.93;;;10.10;;
20065;SDS011;10193;48.884;9.182;2022-12-18T07:17:07;14.20;;;9.67;;
20065;SDS011;10193;48.884;9.182;2022-12-18T07:19:34;14.57;;;9.37;;
20065;SDS011;10193;48.884;9.182;2022-12-18T07:22:01;15.07;;;9.90;;
20065;SDS011;10193;48.884;9.182;2022-12-18T07:24:29;15.60;;;9.87;;
20065;SDS011;10193;48.884;9.182;2022-12-18T07:26:56;16.20;;;9.83;;
20065;SDS011;10193;48.884;9.182;2022-12-18T07:29:23;16.27;;;10.03;;
20065;SDS011;10193;48.884;9.182;2022-12-18T07:31:49;18.63;;;10.73;;
20065;SDS011;10193;48.884;9.182;2022-12-18T07:34:16;16.70;;;10.13;;
20065;SDS011;10193;48.884;9.182;2022-12-18T07:36:42;14.97;;;9.93;;
20065;SDS011;10193;48.884;9.182;2022-12-18T07:39:10;15.60;;;9.93;;
20065;SDS011;10193;48.884;9.182;2022-12-18T07:41:38;16.13;;;10.33;;
20065;SDS011;10193;48.884;9.182;2022-12-18T07:44:08;16.10;;;10.17;;
20065;SDS011;10193;48.884;9.182;2022-12-18T07:46:35;15.77;;;9.73;;
20065;SDS011;10193;48.884;9.182;2022-12-18T07:49:02;13.87;;;9.80;;
20065;SDS011;10193;48.884;9.182;2022-12-18T07:51:29;15.33;;;10.20;;
20065;SDS011;10193;48.884;9.182;2022-12-18T07:53:56;16.37;;;10.77;;
20065;SDS011;10193;48.884;9.182;2022-12-18T07:56:22;17.37;;;10.40;;
20065;SDS011;10193;48.884;9.182;2022-12-18T07:58:50;14.40;;;9.53;;
20065;SDS011;10193;48.884;9.182;2022-12-18T08:01:17;19.50;;;10.60;;
20065;SDS011;10193;48.884;9.182;2022-12-18T08:03:44;17.43;;;10.77;;
20065;SDS011;10193;48.884;9.182;2022-12-18T08:06:10;16.57;;;10.03;;
20065;SDS011;10193;48.884;9.182;2022-12-18T08:08:37;17.10;;;10.53;;
20065;SDS011;10193;48.884;9.182;2022-12-18T08:11:05;16.43;;;10.20;;
20065;SDS011;10193;48.884;9.182;2022-12-18T08:13:32;15.50;;;10.10;;
20065;SDS011;10193;48.884;9.182;2022-12-18T08:16:00;17.63;;;10.23;;
20065;SDS011;10193;48.884;9.182;2022-12-18T08:18:29;14.50;;;9.70;;
20065;SDS011;10193;48.884;9.182;2022-12-18T08:20:56;16.57;;;10.50;;
20065;SDS011;10193;48.884;9.182;2022-12-18T08:23:22;15.47;;;9.60;;
20065;SDS011;10193;48.884;9.182;2022-12-18T08:25:49;15.13;;;9.97;;
20065;SDS011;10193;48.884;9.182;2022-12-18T08:28:16;14.67;;;9.47;;
20065;SDS011;10193;48.884;9.182;2022-12-18T08:30:43;13.97;;;9.43;;
20065;SDS011;10193;48.884;9.182;2022-12-18T08:33:11;15.67;;;9.80;;
20065;SDS011;10193;48.884;9.182;2022-12-18T08:35:38;15.60;;;9.97;;
20065;SDS011;10193;48.884;9.182;2022-12-18T08:38:04;14.17;;;10.00;;
20065;SDS011;10193;48.884;9.182;2022-12-18T08:40:31;19.07;;;10.37;;
20065;SDS011;10193;48.884;9.182;2022-12-18T08:42:58;15.03;;;10.10;;
20065;SDS011;10193;48.884;9.182;2022-12-18T08:45:42;16.13;;;9.70;;
20065;SDS011;10193;48.884;9.182;2022-12-18T08:48:10;18.77;;;11.23;;
20065;SDS011;10193;48.884;9.182;2022-12-18T08:50:37;15.00;;;9.67;;
20065;SDS011;10193;48.884;9.182;2022-12-18T08:53:03;16.80;;;9.63;;
20065;SDS011;10193;48.884;9.182;2022-12-18T08:55:30;16.27;;;10.60;;
20065;SDS011;10193;48.884;9.182;2022-12-18T08:57:57;14.07;;;9.47;;
20065;SDS011;10193;48.884;9.182;2022-12-18T09:00:23;15.60;;;10.23;;
20065;SDS011;10193;48.884;9.182;2022-12-18T09:02:50;14.03;;;9.73;;
20065;SDS011;10193;48.884;9.182;2022-12-18T09:05:18;16.57;;;10.83;;
20065;SDS011;10193;48.884;9.182;2022-12-18T09:07:45;16.20;;;10.73;;
20065;SDS011;10193;48.884;9.182;2022-12-18T09:10:11;16.50;;;9.93;;
20065;SDS011;10193;48.884;9.182;2022-12-18T09:12:38;14.87;;;10.23;;
20065;SDS011;10193;48.884;9.182;2022-12-18T09:15:05;13.23;;;9.63;;
20065;SDS011;10193;48.884;9.182;2022-12-18T09:17:32;15.43;;;10.50;;
20065;SDS011;10193;48.884;9.182;2022-12-18T09:19:59;15.30;;;10.07;;
20065;SDS011;10193;48.884;9.182;2022-12-18T09:22:27;16.50;;;9.73;;
20065;SDS011;10193;48.884;9.182;2022-12-18T09:24:54;17.50;;;10.33;;
20065;SDS011;10193;48.884;9.182;2022-12-18T09:27:20;17.13;;;10.83;;
20065;SDS011;10193;48.884;9.182;2022-12-18T09:29:47;15.53;;;9.87;;
20065;SDS011;10193;48.884;9.182;2022-12-18T09:32:14;15.43;;;9.80;;
20065;SDS011;10193;48.884;9.182;2022-12-18T09:34:40;16.27;;;10.40;;
20065;SDS011;10193;48.884;9.182;2022-12-18T09:37:07;16.57;;;10.47;;
20065;SDS011;10193;48.884;9.182;2022-12-18T09:39:39;16.53;;;10.73;;
20065;SDS011;10193;48.884;9.182;2022-12-18T09:42:05;15.50;;;10.00;;
20065;SDS011;10193;48.884;9.182;2022-12-18T09:44:39;14.70;;;9.53;;
20065;SDS011;10193;48.884;9.182;2022-12-18T09:47:11;14.70;;;10.27;;
20065;SDS011;10193;48.884;9.182;2022-12-18T09:49:42;15.63;;;9.67;;
20065;SDS011;10193;48.884;9.182;2022-12-18T09:52:12;17.60;;;10.53;;
20065;SDS011;10193;48.884;9.182;2022-12-18T09:54:45;15.20;;;9.20;;
20065;SDS011;10193;48.884;9.182;2022-12-18T09:57:17;16.70;;;10.47;;
20065;SDS011;10193;48.884;9.182;2022-12-18T09:59:47;14.67;;;9.73;;
20065;SDS011;10193;48.884;9.182;2022-12-18T10:02:19;15.70;;;10.03;;
20065;SDS011;10193;48.884;9.182;2022-12-18T10:04:48;18.33;;;10.40;;
20065;SDS011;10193;48.884;9.182;2022-12-18T10:07:24;18.57;;;10.77;;
20065;SDS011;10193;48.884;9.182;2022-12-18T10:09:58;18.20;;;11.30;;
20065;SDS011;10193;48.884;9.182;2022-12-18T10:12:30;18.43;;;11.50;;
20065;SDS011;10193;48.884;9.182;2022-12-18T10:15:04;17.70;;;11.47;;
20065;SDS011;10193;48.884;9.182;2022-12-18T10:17:38;21.97;;;11.20;;
20065;SDS011;10193;48.884;9.182;2022-12-18T10:20:10;18.33;;;11.37;;
20065;SDS011;10193;48.884;9.182;2022-12-18T10:22:43;15.40;;;10.63;;
20065;SDS011;10193;48.884;9.182;2022-12-18T10:25:22;15.90;;;10.20;;
20065;SDS011;10193;48.884;9.182;2022-12-18T10:27:53;15.97;;;10.33;;
20065;SDS011;10193;48.884;9.182;2022-12-18T10:30:24;18.30;;;10.93;;
20065;SDS011;10193;48.884;9.182;2022-12-18T10:32:52;16.67;;;10.67;;
20065;SDS011;10193;48.884;9.182;2022-12-18T10:35:20;15.50;;;10.70;;
20065;SDS011;10193;48.884;9.182;2022-12-18T10:38:04;15.53;;;10.73;;
20065;SDS011;10193;48.884;9.182;2022-12-18T10:40:34;16.70;;;10.77;;
20065;SDS011;10193;48.884;9.182;2022-12-18T10:43:15;18.07;;;11.33;;
20065;SDS011;10193;48.884;9.182;2022-12-18T10:45:57;15.80;;;10.00;;
20065;SDS011;10193;48.884;9.182;2022-12-18T10:48:26;16.40;;;10.40;;
20065;SDS011;10193;48.884;9.182;2022-12-18T10:50:53;17.27;;;11.00;;
20065;SDS011;10193;48.884;9.182;2022-12-18T10:53:21;16.93;;;10.63;;
20065;SDS011;10193;48.884;9.182;2022-12-18T10:55:51;18.83;;;11.33;;
20065;SDS011;10193;48.884;9.182;2022-12-18T10:58:22;18.00;;;11.50;;
20065;SDS011;10193;48.884;9.182;2022-12-18T11:01:05;16.10;;;11.20;;
20065;SDS011;10193;48.884;9.182;2022-12-18T11:03:34;16.30;;;10.73;;
20065;SDS011;10193;48.884;9.182;2022-12-18T11:06:03;15.53;;;10.97;;
20065;SDS011;10193;48.884;9.182;2022-12-18T11:08:31;17.57;;;11.50;;
20065;SDS011;10193;48.884;9.182;2022-12-18T11:11:00;17.73;;;11.30;;
20065;SDS011;10193;48.884;9.182;2022-12-18T11:13:27;18.20;;;11.50;;
20065;SDS011;10193;48.884;9.182;2022-12-18T11:15:56;17.83;;;12.13;;
20065;SDS011;10193;48.884;9.182;2022-12-18T11:18:25;19.73;;;12.53;;
20065;SDS011;10193;48.884;9.182;2022-12-18T11:20:54;17.27;;;11.27;;
20065;SDS011;10193;48.884;9.182;2022-12-18T11:23:23;17.60;;;11.83;;
20065;SDS011;10193;48.884;9.182;2022-12-18T11:25:51;19.37;;;12.30;;
20065;SDS011;10193;48.884;9.182;2022-12-18T11:28:28;16.43;;;11.33;;
20065;SDS011;10193;48.884;9.182;2022-12-18T11:31:20;18.23;;;11.50;;
20065;SDS011;10193;48.884;9.182;2022-12-18T11:34:00;18.00;;;11.57;;
20065;SDS011;10193;48.884;9.182;2022-12-18T11:36:31;16.60;;;10.87;;
20065;SDS011;10193;48.884;9.182;2022-12-18T11:39:06;17.60;;;11.10;;
20065;SDS011;10193;48.884;9.182;2022-12-18T11:41:39;15.10;;;10.90;;
20065;SDS011;10193;48.884;9.182;2022-12-18T11:44:34;18.40;;;11.43;;
20065;SDS011;10193;48.884;9.182;2022-12-18T11:47:05;17.07;;;11.73;;
20065;SDS011;10193;48.884;9.182;2022-12-18T11:49:39;17.07;;;11.27;;
20065;SDS011;10193;48.884;9.182;2022-12-18T11:52:09;18.43;;;11.93;;
20065;SDS011;10193;48.884;9.182;2022-12-18T11:54:42;18.23;;;11.93;;
20065;SDS011;10193;48.884;9.182;2022-12-18T11:57:10;17.40;;;11.73;;
20065;SDS011;10193;48.884;9.182;2022-12-18T11:59:53;18.53;;;11.57;;
20065;SDS011;10193;48.884;9.182;2022-12-18T12:02:37;19.33;;;12.60;;
20065;SDS011;10193;48.884;9.182;2022-12-18T12:05:20;22.43;;;12.57;;
20065;SDS011;10193;48.884;9.182;2022-12-18T12:07:59;21.00;;;11.80;;
20065;SDS011;10193;48.884;9.182;2022-12-18T12:10:36;18.07;;;11.63;;
20065;SDS011;10193;48.884;9.182;2022-12-18T12:13:15;18.00;;;11.57;;
20065;SDS011;10193;48.884;9.182;2022-12-18T12:15:54;18.83;;;12.53;;
20065;SDS011;10193;48.884;9.182;2022-12-18T12:18:33;17.37;;;11.47;;
20065;SDS011;10193;48.884;9.182;2022-12-18T12:21:12;17.40;;;11.43;;
20065;SDS011;10193;48.884;9.182;2022-12-18T12:23:45;19.83;;;12.37;;
20065;SDS011;10193;48.884;9.182;2022-12-18T12:26:18;17.80;;;11.70;;
20065;SDS011;10193;48.884;9.182;2022-12-18T12:29:00;18.47;;;12.43;;
20065;SDS011;10193;48.884;9.182;2022-12-18T12:31:45;18.63;;;12.40;;
20065;SDS011;10193;48.884;9.182;2022-12-18T12:34:25;17.83;;;12.23;;
20065;SDS011;10193;48.884;9.182;2022-12-18T12:37:03;18.40;;;11.90;;
20065;SDS011;10193;48.884;9.182;2022-12-18T12:39:42;19.40;;;12.53;;
20065;SDS011;10193;48.884;9.182;2022-12-18T12:42:13;18.90;;;12.23;;
20065;SDS011;10193;48.884;9.182;2022-12-18T12:45:03;18.80;;;12.63;;
20065;SDS011;10193;48.884;9.182;2022-12-18T12:47:35;18.87;;;13.00;;
20065;SDS011;10193;48.884;9.182;2022-12-18T12:50:12;19.37;;;12.50;;
20065;SDS011;10193;48.884;9.182;2022-12-18T12:52:42;19.30;;;12.83;;
20065;SDS011;10193;48.884;9.182;2022-12-18T12:55:13;19.70;;;13.07;;
20065;SDS011;10193;48.884;9.182;2022-12-18T12:57:43;20.20;;;13.17;;
20065;SDS011;10193;48.884;9.182;2022-12-18T13:00:15;21.03;;;12.73;;
20065;SDS011;10193;48.884;9.182;2022-12-18T13:02:46;22.77;;;14.03;;
20065;SDS011;10193;48.884;9.182;2022-12-18T13:05:18;17.13;;;12.23;;
20065;SDS011;10193;48.884;9.182;2022-12-18T13:07:50;19.47;;;12.90;;
20065;SDS011;10193;48.884;9.182;2022-12-18T13:10:23;21.60;;;13.97;;
20065;SDS011;10193;48.884;9.182;2022-12-18T13:12:59;20.63;;;12.67;;
20065;SDS011;10193;48.884;9.182;2022-12-18T13:15:29;20.13;;;12.83;;
20065;SDS011;10193;48.884;9.182;2022-12-18T13:18:11;19.37;;;12.87;;
20065;SDS011;10193;48.884;9.182;2022-12-18T13:20:41;20.30;;;13.27;;
20065;SDS011;10193;48.884;9.182;2022-12-18T13:23:26;20.63;;;13.47;;
20065;SDS011;10193;48.884;9.182;2022-12-18T13:25:55;19.27;;;12.57;;
20065;SDS011;10193;48.884;9.182;2022-12-18T13:28:23;21.33;;;13.77;;
20065;SDS011;10193;48.884;9.182;2022-12-18T13:31:11;19.90;;;13.17;;
20065;SDS011;10193;48.884;9.182;2022-12-18T13:33:41;20.23;;;13.60;;
20065;SDS011;10193;48.884;9.182;2022-12-18T13:36:10;18.10;;;12.77;;
20065;SDS011;10193;48.884;9.182;2022-12-18T13:41:38;19.87;;;12.77;;
20065;SDS011;10193;48.884;9.182;2022-12-18T13:44:11;20.27;;;14.10;;
20065;SDS011;10193;48.884;9.182;2022-12-18T13:46:42;19.67;;;13.17;;
20065;SDS011;10193;48.884;9.182;2022-12-18T13:49:17;18.17;;;13.17;;
20065;SDS011;10193;48.884;9.182;2022-12-18T13:51:49;18.90;;;13.07;;
20065;SDS011;10193;48.884;9.182;2022-12-18T13:54:18;20.13;;;13.33;;
20065;SDS011;10193;48.884;9.182;2022-12-18T13:56:49;18.17;;;13.00;;
20065;SDS011;10193;48.884;9.182;2022-12-18T13:59:18;21.07;;;13.67;;
20065;SDS011;10193;48.884;9.182;2022-12-18T14:01:48;18.67;;;12.57;;
20065;SDS011;10193;48.884;9.182;2022-12-18T14:04:19;20.17;;;14.03;;
20065;SDS011;10193;48.884;9.182;2022-12-18T14:06:50;19.20;;;13.07;;
20065;SDS011;10193;48.884;9.182;2022-12-18T14:09:21;20.30;;;13.43;;
20065;SDS011;10193;48.884;9.182;2022-12-18T14:11:51;20.97;;;13.37;;
20065;SDS011;10193;48.884;9.182;2022-12-18T14:14:40;18.57;;;12.63;;
20065;SDS011;10193;48.884;9.182;2022-12-18T14:17:08;18.77;;;13.80;;
20065;SDS011;10193;48.884;9.182;2022-12-18T14:19:37;17.40;;;12.60;;
20065;SDS011;10193;48.884;9.182;2022-12-18T14:22:11;17.83;;;12.97;;
20065;SDS011;10193;48.884;9.182;2022-12-18T14:24:42;19.23;;;12.83;;
20065;SDS011;10193;48.884;9.182;2022-12-18T14:27:12;19.67;;;12.83;;
20065;SDS011;10193;48.884;9.182;2022-12-18T14:29:47;19.30;;;12.17;;
20065;SDS011;10193;48.884;9.182;2022-12-18T14:32:15;18.10;;;12.53;;
20065;SDS011;10193;48.884;9.182;2022-12-18T14:34:44;16.90;;;12.23;;
20065;SDS011;10193;48.884;9.182;2022-12-18T14:37:12;19.40;;;13.23;;
20065;SDS011;10193;48.884;9.182;2022-12-18T14:39:51;19.77;;;12.93;;
20065;SDS011;10193;48.884;9.182;2022-12-18T14:42:22;17.40;;;11.90;;
20065;SDS011;10193;48.884;9.182;2022-12-18T14:47:53;17.33;;;11.63;;